createdAt,value
2023-05-10T00:01:12.915Z,12.50
2023-05-10T00:03:41.258Z,12.30
2023-05-10T00:06:08.848Z,12.40
2023-05-10T00:08:36.181Z,12.40
2023-05-10T00:11:04.998Z,12.40
2023-05-10T00:13:34.381Z,12.40
2023-05-10T00:16:01.792Z,12.40
2023-05-10T00:18:29.167Z,12.40
2023-05-10T00:20:58.989Z,12.40
2023-05-10T00:23:27.594Z,12.30
2023-05-10T00:25:54.974Z,12.30
2023-05-10T00:28:22.421Z,12.30
2023-05-10T00:30:52.530Z,12.20
2023-05-10T00:33:20.069Z,12.20
2023-05-10T00:35:47.584Z,12.20
2023-05-10T00:38:16.290Z,12.10
2023-05-10T00:40:43.818Z,12.00
2023-05-10T00:43:19.003Z,12.00
2023-05-10T00:45:48.406Z,11.90
2023-05-10T00:48:18.581Z,11.90
2023-05-10T00:50:48.613Z,12.00
2023-05-10T00:53:19.551Z,11.90
2023-05-10T00:55:46.903Z,11.90
2023-05-10T00:58:14.995Z,11.80
2023-05-10T01:00:44.488Z,11.80
2023-05-10T01:03:12.621Z,11.80
2023-05-10T01:05:40.038Z,11.70
2023-05-10T01:08:07.856Z,11.70
2023-05-10T01:10:35.257Z,11.70
2023-05-10T01:13:06.218Z,11.60
2023-05-10T01:15:34.124Z,11.60
2023-05-10T01:18:02.070Z,11.50
2023-05-10T01:20:49.074Z,11.40
2023-05-10T01:23:43.860Z,11.20
2023-05-10T01:26:35.469Z,11.10
2023-05-10T01:29:32.922Z,11.10
2023-05-10T01:32:28.632Z,11.10
2023-05-10T01:35:07.087Z,11.00
2023-05-10T01:38:08.711Z,10.80
2023-05-10T01:40:56.149Z,10.70
2023-05-10T01:43:29.351Z,10.60
2023-05-10T01:46:12.056Z,10.60
2023-05-10T01:48:47.960Z,10.70
2023-05-10T01:51:24.005Z,10.80
2023-05-10T01:53:55.146Z,10.60
2023-05-10T01:56:25.248Z,10.50
2023-05-10T01:58:54.152Z,10.40
2023-05-10T02:01:22.940Z,10.40
2023-05-10T02:03:55.868Z,10.40
2023-05-10T02:06:26.295Z,10.30
2023-05-10T02:08:58.359Z,10.20
2023-05-10T02:11:30.188Z,10.20
2023-05-10T02:14:00.115Z,10.10
2023-05-10T02:16:31.927Z,10.00
2023-05-10T02:19:02.547Z,9.90
2023-05-10T02:21:31.812Z,9.90
2023-05-10T02:24:02.492Z,10.00
2023-05-10T02:26:32.455Z,10.00
2023-05-10T02:29:04.231Z,10.00
2023-05-10T02:31:34.109Z,9.90
2023-05-10T02:34:05.275Z,9.80
2023-05-10T02:36:33.217Z,9.80
2023-05-10T02:39:02.654Z,9.70
2023-05-10T02:41:33.541Z,9.70
2023-05-10T02:44:03.833Z,9.60
2023-05-10T02:46:34.206Z,9.70
2023-05-10T02:49:03.846Z,9.70
2023-05-10T02:51:35.789Z,9.70
2023-05-10T02:54:11.739Z,9.60
2023-05-10T02:56:43.903Z,9.60
2023-05-10T02:59:11.161Z,9.60
2023-05-10T03:01:38.477Z,9.80
2023-05-10T03:04:06.253Z,9.80
2023-05-10T03:06:34.006Z,9.90
2023-05-10T03:09:04.433Z,9.90
2023-05-10T03:11:50.985Z,10.00
2023-05-10T03:15:03.375Z,10.10
2023-05-10T03:18:19.821Z,10.00
2023-05-10T03:20:50.438Z,10.00
2023-05-10T03:23:41.348Z,10.00
2023-05-10T03:26:10.793Z,10.00
2023-05-10T03:28:38.437Z,10.00
2023-05-10T03:31:10.105Z,10.00
2023-05-10T03:33:54.290Z,9.90
2023-05-10T03:36:26.161Z,9.90
2023-05-10T03:38:54.347Z,9.80
2023-05-10T03:41:22.356Z,9.80
2023-05-10T03:43:49.971Z,9.90
2023-05-10T03:46:17.430Z,10.00
2023-05-10T03:48:46.613Z,10.10
2023-05-10T03:51:13.953Z,10.10
2023-05-10T03:53:41.305Z,10.20
2023-05-10T03:56:08.830Z,10.30
2023-05-10T03:58:36.962Z,10.30
2023-05-10T04:01:04.932Z,10.30
2023-05-10T04:03:32.636Z,10.30
2023-05-10T04:06:02.473Z,10.30
2023-05-10T04:08:32.643Z,10.30
2023-05-10T04:11:19.012Z,10.30
2023-05-10T04:13:46.338Z,10.20
2023-05-10T04:16:13.721Z,10.30
2023-05-10T04:18:41.188Z,10.40
2023-05-10T04:21:14.938Z,10.40
2023-05-10T04:23:42.459Z,10.60
2023-05-10T04:26:12.373Z,10.70
2023-05-10T04:28:39.824Z,10.80
2023-05-10T04:31:09.663Z,10.80
2023-05-10T04:33:37.773Z,10.90
2023-05-10T04:36:06.166Z,11.00
2023-05-10T04:38:35.715Z,11.10
2023-05-10T04:41:10.080Z,11.20
2023-05-10T04:43:38.283Z,11.20
2023-05-10T04:46:06.896Z,11.30
2023-05-10T04:48:37.178Z,11.40
2023-05-10T04:51:14.584Z,11.40
2023-05-10T04:53:46.401Z,11.60
2023-05-10T04:56:18.773Z,11.60
2023-05-10T04:58:47.032Z,11.70
2023-05-10T05:01:15.158Z,11.80
2023-05-10T05:03:50.331Z,11.90
2023-05-10T05:06:22.094Z,11.90
2023-05-10T05:08:50.708Z,12.00
2023-05-10T05:11:18.752Z,12.00
2023-05-10T05:13:46.657Z,12.20
2023-05-10T05:16:14.007Z,12.20
2023-05-10T05:18:44.204Z,12.30
2023-05-10T05:21:21.146Z,12.40
2023-05-10T05:23:48.448Z,12.40
2023-05-10T05:26:16.220Z,12.50
2023-05-10T05:28:43.748Z,12.60
2023-05-10T05:31:11.235Z,12.80
2023-05-10T05:33:38.716Z,12.80
2023-05-10T05:36:07.210Z,13.00
2023-05-10T05:38:37.165Z,13.10
2023-05-10T05:41:04.479Z,13.20
2023-05-10T05:43:31.840Z,13.40
2023-05-10T05:45:59.343Z,13.50
2023-05-10T05:48:26.978Z,13.60
2023-05-10T05:50:58.133Z,13.70
2023-05-10T05:53:25.809Z,13.80
2023-05-10T05:55:55.398Z,14.00
2023-05-10T05:58:23.657Z,14.10
2023-05-10T06:00:53.013Z,14.30
2023-05-10T06:03:20.956Z,14.30
2023-05-10T06:05:49.078Z,14.50
2023-05-10T06:08:16.623Z,14.70
2023-05-10T06:10:44.156Z,14.80
2023-05-10T06:13:11.894Z,15.10
2023-05-10T06:15:39.674Z,15.40
2023-05-10T06:18:07.303Z,15.70
2023-05-10T06:20:34.903Z,16.00
2023-05-10T06:23:02.550Z,16.20
2023-05-10T06:25:30.215Z,16.30
2023-05-10T06:28:06.465Z,16.50
2023-05-10T06:30:34.041Z,16.80
2023-05-10T06:33:01.522Z,17.10
2023-05-10T06:35:30.036Z,17.30
2023-05-10T06:37:59.976Z,17.50
2023-05-10T06:40:27.794Z,17.90
2023-05-10T06:42:55.176Z,18.50
2023-05-10T06:45:22.938Z,19.20
2023-05-10T06:47:52.722Z,19.60
2023-05-10T06:50:20.409Z,20.00
2023-05-10T06:52:47.799Z,20.20
2023-05-10T06:55:15.911Z,20.60
2023-05-10T06:57:46.385Z,21.80
2023-05-10T07:00:15.104Z,22.60
2023-05-10T07:02:42.815Z,23.10
2023-05-10T07:05:10.570Z,23.00
2023-05-10T07:07:38.105Z,22.80
2023-05-10T07:10:06.295Z,22.80
2023-05-10T07:12:34.002Z,21.90
2023-05-10T07:15:01.712Z,21.90
2023-05-10T07:17:29.512Z,22.10
2023-05-10T07:19:57.040Z,22.60
2023-05-10T07:22:24.499Z,23.40
2023-05-10T07:24:52.068Z,23.80
2023-05-10T07:27:19.690Z,23.80
2023-05-10T07:29:47.115Z,24.10
2023-05-10T07:32:14.894Z,24.30
2023-05-10T07:34:42.541Z,24.30
2023-05-10T07:37:10.204Z,24.00
2023-05-10T07:39:38.670Z,24.00
2023-05-10T07:42:06.909Z,23.90
2023-05-10T07:44:34.444Z,24.40
2023-05-10T07:47:02.072Z,24.70
2023-05-10T07:49:29.522Z,24.60
2023-05-10T07:51:57.293Z,24.90
2023-05-10T07:54:24.807Z,25.20
2023-05-10T07:56:53.757Z,25.00
2023-05-10T07:59:21.830Z,24.90
2023-05-10T08:01:50.791Z,25.00
2023-05-10T08:04:18.523Z,25.10
2023-05-10T08:06:47.548Z,25.40
2023-05-10T08:09:16.895Z,25.60
2023-05-10T08:11:44.755Z,25.20
2023-05-10T08:14:12.506Z,24.10
2023-05-10T08:16:40.053Z,23.50
2023-05-10T08:19:07.790Z,23.50
2023-05-10T08:21:35.536Z,24.10
2023-05-10T08:24:03.238Z,24.50
2023-05-10T08:26:31.728Z,24.50
2023-05-10T08:28:59.322Z,24.30
2023-05-10T08:31:26.865Z,24.30
2023-05-10T08:33:54.579Z,24.40
2023-05-10T08:36:25.284Z,24.40
2023-05-10T08:38:53.416Z,24.20
2023-05-10T08:41:22.152Z,23.80
2023-05-10T08:43:51.221Z,23.30
2023-05-10T08:46:21.100Z,22.80
2023-05-10T08:48:50.272Z,22.50
2023-05-10T08:51:27.956Z,22.10
2023-05-10T08:53:56.105Z,21.80
2023-05-10T08:56:26.333Z,21.50
2023-05-10T08:58:54.018Z,21.30
2023-05-10T09:01:22.833Z,21.20
2023-05-10T09:03:55.592Z,21.30
2023-05-10T09:06:27.911Z,21.30
2023-05-10T09:08:57.919Z,21.50
2023-05-10T09:11:25.698Z,21.60
2023-05-10T09:13:53.956Z,21.70
2023-05-10T09:16:22.425Z,21.80
2023-05-10T09:18:53.252Z,22.00
2023-05-10T09:21:24.414Z,22.00
2023-05-10T09:23:57.454Z,22.10
2023-05-10T09:26:29.999Z,22.20
2023-05-10T09:29:01.812Z,22.20
2023-05-10T09:31:52.307Z,22.10
2023-05-10T09:34:22.119Z,22.00
2023-05-10T09:37:02.004Z,21.80
2023-05-10T09:39:38.269Z,21.80
2023-05-10T09:42:10.552Z,21.80
2023-05-10T09:44:39.275Z,22.10
2023-05-10T09:47:06.801Z,22.40
2023-05-10T09:49:34.410Z,22.70
2023-05-10T09:52:04.583Z,23.00
2023-05-10T09:54:33.099Z,22.90
2023-05-10T09:57:01.720Z,22.80
2023-05-10T09:59:30.339Z,22.70
2023-05-10T10:01:59.629Z,22.60
2023-05-10T10:04:27.921Z,22.50
2023-05-10T10:07:03.902Z,22.70
2023-05-10T10:09:32.430Z,22.60
2023-05-10T10:12:01.739Z,22.70
2023-05-10T10:14:30.362Z,22.70
2023-05-10T10:17:08.945Z,23.00
2023-05-10T10:19:38.054Z,22.90
2023-05-10T10:22:07.053Z,22.50
2023-05-10T10:24:34.972Z,22.60
2023-05-10T10:27:36.265Z,22.40
2023-05-10T10:30:27.915Z,22.20
2023-05-10T10:33:44.838Z,22.10
2023-05-10T10:36:17.215Z,21.90
2023-05-10T10:39:03.122Z,22.00
2023-05-10T10:42:01.749Z,22.30
2023-05-10T10:44:39.518Z,22.60
2023-05-10T10:47:34.441Z,22.80
2023-05-10T10:50:07.133Z,22.80
2023-05-10T10:52:40.289Z,22.70
2023-05-10T10:55:13.828Z,22.60
2023-05-10T10:58:05.696Z,22.60
2023-05-10T11:00:36.053Z,22.70
2023-05-10T11:03:08.663Z,22.80
2023-05-10T11:05:44.247Z,23.00
2023-05-10T11:08:31.280Z,23.20
2023-05-10T11:11:08.286Z,23.20
2023-05-10T11:13:50.015Z,23.50
2023-05-10T11:16:26.512Z,23.80
2023-05-10T11:18:59.008Z,23.90
2023-05-10T11:21:27.058Z,24.00
2023-05-10T11:23:59.757Z,23.90
2023-05-10T11:26:37.140Z,23.80
2023-05-10T11:29:06.012Z,23.60
2023-05-10T11:31:34.314Z,23.50
2023-05-10T11:34:02.915Z,23.50
2023-05-10T11:36:35.105Z,23.40
2023-05-10T11:39:03.135Z,23.20
2023-05-10T11:41:31.733Z,23.40
2023-05-10T11:44:00.002Z,23.60
2023-05-10T11:46:29.438Z,23.50
2023-05-10T11:49:03.087Z,23.40
2023-05-10T11:51:33.862Z,23.00
2023-05-10T11:54:01.296Z,22.80
2023-05-10T11:56:28.794Z,22.90
2023-05-10T11:58:58.168Z,22.80
2023-05-10T12:01:27.741Z,22.80
2023-05-10T12:03:59.693Z,22.70
2023-05-10T12:06:32.839Z,22.80
2023-05-10T12:09:06.473Z,22.70
2023-05-10T12:11:41.174Z,22.80
2023-05-10T12:14:11.697Z,23.10
2023-05-10T12:16:39.635Z,23.30
2023-05-10T12:19:07.153Z,23.50
2023-05-10T12:21:34.674Z,23.70
2023-05-10T12:24:06.482Z,23.50
2023-05-10T12:26:34.012Z,23.70
2023-05-10T12:29:18.918Z,23.70
2023-05-10T12:31:54.825Z,23.40
2023-05-10T12:34:32.824Z,23.10
2023-05-10T12:37:01.780Z,22.80
2023-05-10T12:39:43.158Z,23.00
2023-05-10T12:42:11.662Z,23.00
2023-05-10T12:44:39.711Z,22.80
2023-05-10T12:47:07.648Z,22.80
2023-05-10T12:49:37.045Z,22.80
2023-05-10T12:52:05.784Z,22.80
2023-05-10T12:54:33.297Z,22.80
2023-05-10T12:57:00.820Z,23.20
2023-05-10T12:59:28.455Z,23.40
2023-05-10T13:01:55.972Z,23.60
2023-05-10T13:04:23.448Z,23.80
2023-05-10T13:06:50.856Z,24.00
2023-05-10T13:09:18.321Z,24.20
2023-05-10T13:11:46.382Z,24.00
2023-05-10T13:14:14.399Z,23.90
2023-05-10T13:16:42.033Z,23.70
2023-05-10T13:19:09.650Z,23.80
2023-05-10T13:21:37.237Z,23.60
2023-05-10T13:24:04.802Z,23.00
2023-05-10T13:26:32.290Z,22.80
2023-05-10T13:28:59.823Z,22.60
2023-05-10T13:31:27.557Z,22.10
2023-05-10T13:33:55.074Z,21.90
2023-05-10T13:36:23.876Z,21.70
2023-05-10T13:38:52.083Z,21.40
2023-05-10T13:41:20.958Z,21.20
2023-05-10T13:43:50.476Z,21.20
2023-05-10T13:46:20.767Z,21.40
2023-05-10T13:48:48.431Z,21.60
2023-05-10T13:51:15.943Z,21.60
2023-05-10T13:53:46.027Z,21.60
2023-05-10T13:56:14.173Z,21.70
2023-05-10T13:58:42.378Z,21.60
2023-05-10T14:01:09.823Z,21.70
2023-05-10T14:03:38.252Z,21.80
2023-05-10T14:06:05.938Z,21.90
2023-05-10T14:08:33.511Z,22.10
2023-05-10T14:11:01.080Z,22.10
2023-05-10T14:13:28.695Z,22.40
2023-05-10T14:15:56.596Z,22.50
2023-05-10T14:18:24.225Z,22.40
2023-05-10T14:20:51.639Z,22.40
2023-05-10T14:23:21.046Z,22.30
2023-05-10T14:25:48.567Z,22.20
2023-05-10T14:28:17.010Z,22.10
2023-05-10T14:30:44.569Z,21.90
2023-05-10T14:33:12.252Z,21.80
2023-05-10T14:35:40.012Z,21.70
2023-05-10T14:38:07.494Z,21.60
2023-05-10T14:40:35.572Z,21.40
2023-05-10T14:43:03.061Z,21.10
2023-05-10T14:45:30.739Z,21.10
2023-05-10T14:47:59.018Z,20.90
2023-05-10T14:50:36.014Z,20.90
2023-05-10T14:53:04.645Z,20.90
2023-05-10T14:55:32.248Z,20.90
2023-05-10T14:57:59.838Z,21.00
2023-05-10T15:00:30.075Z,20.90
2023-05-10T15:02:59.971Z,20.80
2023-05-10T15:05:27.909Z,20.70
2023-05-10T15:07:55.873Z,20.60
2023-05-10T15:10:23.686Z,20.60
2023-05-10T15:12:51.493Z,20.60
2023-05-10T15:15:19.179Z,20.60
2023-05-10T15:17:46.974Z,20.80
2023-05-10T15:20:14.455Z,20.80
2023-05-10T15:22:42.181Z,20.90
2023-05-10T15:25:10.704Z,21.20
2023-05-10T15:27:38.417Z,21.20
2023-05-10T15:30:07.521Z,21.20
2023-05-10T15:32:34.982Z,21.20
2023-05-10T15:35:03.661Z,21.30
2023-05-10T15:37:31.118Z,21.30
2023-05-10T15:40:04.689Z,21.40
2023-05-10T15:42:36.471Z,21.70
2023-05-10T15:45:05.074Z,21.90
2023-05-10T15:47:33.006Z,21.70
2023-05-10T15:50:01.211Z,21.40
2023-05-10T15:52:28.816Z,21.10
2023-05-10T15:54:56.729Z,20.80
2023-05-10T15:57:24.522Z,20.60
2023-05-10T15:59:52.527Z,20.40
2023-05-10T16:02:20.100Z,20.20
2023-05-10T16:04:47.623Z,19.90
2023-05-10T16:07:15.100Z,19.40
2023-05-10T16:09:42.679Z,19.20
2023-05-10T16:12:10.455Z,19.00
2023-05-10T16:14:37.952Z,18.90
2023-05-10T16:17:06.143Z,18.70
2023-05-10T16:19:33.736Z,18.50
2023-05-10T16:22:01.757Z,18.60
2023-05-10T16:24:29.354Z,18.50
2023-05-10T16:26:56.733Z,18.30
2023-05-10T16:29:24.162Z,18.30
2023-05-10T16:31:51.689Z,18.10
2023-05-10T16:34:20.777Z,18.10
2023-05-10T16:36:48.474Z,18.10
2023-05-10T16:39:16.709Z,18.00
2023-05-10T16:41:44.105Z,18.00
2023-05-10T16:44:11.770Z,17.90
2023-05-10T16:46:39.283Z,17.80
2023-05-10T16:49:07.083Z,17.80
2023-05-10T16:51:34.593Z,17.80
2023-05-10T16:54:02.438Z,17.70
2023-05-10T16:56:29.829Z,17.70
2023-05-10T16:58:59.670Z,17.70
2023-05-10T17:01:27.509Z,17.70
2023-05-10T17:03:55.579Z,17.70
2023-05-10T17:06:23.154Z,17.70
2023-05-10T17:08:50.724Z,17.60
2023-05-10T17:11:20.051Z,17.60
2023-05-10T17:13:47.912Z,17.60
2023-05-10T17:16:15.739Z,17.50
2023-05-10T17:18:43.439Z,17.40
2023-05-10T17:21:11.460Z,17.30
2023-05-10T17:23:38.950Z,17.20
2023-05-10T17:26:07.355Z,17.10
2023-05-10T17:28:44.871Z,17.00
2023-05-10T17:31:12.323Z,17.00
2023-05-10T17:33:39.742Z,16.90
2023-05-10T17:36:07.803Z,16.90
2023-05-10T17:38:36.644Z,16.80
2023-05-10T17:41:04.206Z,16.70
2023-05-10T17:43:31.727Z,16.70
2023-05-10T17:45:59.630Z,16.50
2023-05-10T17:48:27.807Z,16.50
2023-05-10T17:50:56.456Z,16.40
2023-05-10T17:53:24.673Z,16.30
2023-05-10T17:55:52.571Z,16.30
2023-05-10T17:58:19.976Z,16.30
2023-05-10T18:00:47.749Z,16.20
2023-05-10T18:03:15.493Z,16.20
2023-05-10T18:05:42.997Z,16.10
2023-05-10T18:08:11.001Z,16.00
2023-05-10T18:10:41.253Z,16.00
2023-05-10T18:13:09.468Z,16.00
2023-05-10T18:15:37.767Z,16.00
2023-05-10T18:18:05.355Z,16.00
2023-05-10T18:20:33.187Z,15.80
2023-05-10T18:23:00.608Z,15.80
2023-05-10T18:25:28.203Z,15.70
2023-05-10T18:27:55.829Z,15.70
2023-05-10T18:30:23.361Z,15.60
2023-05-10T18:32:50.924Z,15.50
2023-05-10T18:35:18.954Z,15.50
2023-05-10T18:37:46.546Z,15.40
2023-05-10T18:40:14.515Z,15.40
2023-05-10T18:42:46.782Z,15.40
2023-05-10T18:45:14.632Z,15.30
2023-05-10T18:47:43.163Z,15.40
2023-05-10T18:50:11.347Z,15.40
2023-05-10T18:52:38.928Z,15.50
2023-05-10T18:55:07.454Z,15.60
2023-05-10T18:57:41.653Z,15.60
2023-05-10T19:00:12.712Z,15.50
2023-05-10T19:02:41.132Z,15.50
2023-05-10T19:05:09.548Z,15.40
2023-05-10T19:07:37.019Z,15.40
2023-05-10T19:10:04.924Z,15.30
2023-05-10T19:12:32.612Z,15.20
2023-05-10T19:15:00.386Z,15.10
2023-05-10T19:17:30.151Z,15.00
2023-05-10T19:19:59.252Z,14.90
2023-05-10T19:22:44.984Z,14.80
2023-05-10T19:25:19.841Z,14.80
2023-05-10T19:27:47.529Z,14.70
2023-05-10T19:30:15.078Z,14.50
2023-05-10T19:32:45.720Z,14.50
2023-05-10T19:35:13.263Z,14.50
2023-05-10T19:37:46.085Z,14.40
2023-05-10T19:40:16.026Z,14.40
2023-05-10T19:42:46.329Z,14.40
2023-05-10T19:45:15.780Z,14.30
2023-05-10T19:47:43.827Z,14.30
2023-05-10T19:50:12.687Z,14.30
2023-05-10T19:52:40.329Z,14.20
2023-05-10T19:55:08.858Z,14.20
2023-05-10T19:57:36.539Z,14.30
2023-05-10T20:00:08.094Z,14.20
2023-05-10T20:02:38.597Z,14.20
2023-05-10T20:05:06.716Z,14.10
2023-05-10T20:07:34.113Z,14.00
2023-05-10T20:10:01.502Z,13.90
2023-05-10T20:12:28.898Z,13.90
2023-05-10T20:14:56.521Z,13.70
2023-05-10T20:17:24.418Z,13.50
2023-05-10T20:19:54.752Z,13.30
2023-05-10T20:22:22.127Z,13.20
2023-05-10T20:24:49.819Z,13.10
2023-05-10T20:27:17.353Z,13.00
2023-05-10T20:29:44.719Z,12.80
2023-05-10T20:32:12.140Z,12.70
2023-05-10T20:34:39.630Z,12.70
2023-05-10T20:37:08.209Z,12.60
2023-05-10T20:39:35.587Z,12.50
2023-05-10T20:42:03.903Z,12.40
2023-05-10T20:44:34.263Z,12.40
2023-05-10T20:47:01.956Z,12.30
2023-05-10T20:49:31.794Z,12.30
2023-05-10T20:51:59.288Z,12.20
2023-05-10T20:54:26.843Z,12.20
2023-05-10T20:56:54.503Z,12.20
2023-05-10T20:59:21.954Z,12.10
2023-05-10T21:01:49.462Z,12.10
2023-05-10T21:04:16.976Z,12.10
2023-05-10T21:06:45.739Z,11.90
2023-05-10T21:09:13.140Z,12.00
2023-05-10T21:11:40.714Z,11.90
2023-05-10T21:14:08.676Z,11.80
2023-05-10T21:16:39.010Z,11.80
2023-05-10T21:19:09.604Z,11.70
2023-05-10T21:21:37.764Z,11.70
2023-05-10T21:24:06.023Z,11.70
2023-05-10T21:26:33.693Z,11.70
2023-05-10T21:29:01.260Z,11.70
2023-05-10T21:31:29.206Z,11.60
2023-05-10T21:33:57.228Z,11.60
2023-05-10T21:36:28.223Z,11.50
2023-05-10T21:38:55.761Z,11.40
2023-05-10T21:41:23.344Z,11.40
2023-05-10T21:43:51.283Z,11.30
2023-05-10T21:46:18.790Z,11.20
2023-05-10T21:48:46.330Z,11.20
2023-05-10T21:51:14.204Z,11.10
2023-05-10T21:53:41.713Z,11.00
2023-05-10T21:56:09.122Z,11.00
2023-05-10T21:58:39.671Z,10.90
2023-05-10T22:01:07.139Z,10.90
2023-05-10T22:03:34.756Z,11.00
2023-05-10T22:06:02.443Z,11.00
2023-05-10T22:08:30.174Z,11.10
2023-05-10T22:10:57.658Z,11.00
2023-05-10T22:13:25.430Z,10.90
2023-05-10T22:15:52.982Z,10.90
2023-05-10T22:18:20.825Z,11.00
2023-05-10T22:20:48.637Z,11.00
2023-05-10T22:23:18.900Z,11.00
2023-05-10T22:25:46.447Z,10.90
2023-05-10T22:28:14.031Z,11.00
2023-05-10T22:30:42.978Z,10.90
2023-05-10T22:33:12.816Z,10.90
2023-05-10T22:35:41.068Z,10.90
2023-05-10T22:38:08.499Z,10.90
2023-05-10T22:40:35.940Z,10.80
2023-05-10T22:43:03.431Z,10.70
2023-05-10T22:45:31.026Z,10.50
2023-05-10T22:47:59.392Z,10.40
2023-05-10T22:50:27.289Z,10.40
2023-05-10T22:52:54.800Z,10.30
2023-05-10T22:55:22.651Z,10.30
2023-05-10T22:57:50.984Z,10.20
2023-05-10T23:00:18.937Z,10.20
2023-05-10T23:02:46.751Z,10.10
2023-05-10T23:05:14.361Z,10.10
2023-05-10T23:07:41.775Z,10.10
2023-05-10T23:10:09.997Z,10.00
2023-05-10T23:12:37.591Z,9.90
2023-05-10T23:15:06.283Z,9.80
2023-05-10T23:17:33.765Z,9.80
2023-05-10T23:20:01.253Z,9.70
2023-05-10T23:22:28.648Z,9.80
2023-05-10T23:24:56.336Z,9.70
2023-05-10T23:27:23.773Z,9.70
2023-05-10T23:29:57.449Z,9.70
2023-05-10T23:32:25.034Z,9.60
2023-05-10T23:34:53.444Z,9.70
2023-05-10T23:37:21.468Z,9.80
2023-05-10T23:39:52.329Z,9.70
2023-05-10T23:42:20.038Z,9.70
2023-05-10T23:44:47.563Z,9.60
2023-05-10T23:47:14.984Z,9.60
2023-05-10T23:49:45.635Z,9.60
2023-05-10T23:52:13.088Z,9.70
2023-05-10T23:54:40.505Z,9.60
2023-05-10T23:57:08.125Z,9.60
2023-05-10T23:59:35.606Z,9.60
